Meteo Giornale » Osservazioni meteo Italia » Torino-Bric Della Croce

ore: 08:55 - Osservazioni Meteo Torino-Bric Della Croce
Lat. 45° 2' N Lon. 7° 44' E Alt. 709 metri s.l.m.

nebbia Europe/Rome

15 °C

Nebbia

Temp. 24 Ore

15 °C

22 °C

Nord

7.4 Km/h

Dew point 15 °C

Umidità 100 %

Visibilità  0.3 Km

Il sole sorge alle ore 07:14

Il sole tramonta alle ore 19:29

Data e Ora Cielo e Fenomeni T °C DP °C Um. % Pres. hPa Vis. km Vento km/h
Oggi h: 08:55 nebbia Nebbia 15 15 100 1017 0.3 N 7.4
Oggi h: 07:55 coperto_pioggia Pioggia Debole 15 15 100 1016 10 N 0
Oggi h: 06:55 coperto_pioggia Pioggia 15 15 100 1018 10 N 0
Oggi h: 05:55 nuvoloso Nuvoloso 16 16 100 1018 10 N 0
Oggi h: 04:55 nuvoloso Nuvoloso 16 16 100 1018 10 N 0
Oggi h: 03:55 nuvoloso Nuvoloso 18 18 100 1018 10 N 0
Oggi h: 01:55 nuvoloso Nuvoloso 19 18 93 1017 10 N 0
Oggi h: 00:55 nuvoloso Nuvoloso 19 19 100 1017 10 N 0
Ieri h: 23:55 nuvoloso Nuvoloso 19 18 93 1017 10 N 5.5
Ieri h: 22:55 nuvoloso Nuvoloso 19 18 93 1017 10 N 0
Ieri h: 21:55 nuvoloso Nuvoloso 19 18 93 1017 10 N 0
Ieri h: 20:55 nuvoloso Nuvoloso 19 18 93 1016 10 N 0
Ieri h: 19:55 nuvoloso Nuvoloso 19 18 93 1016 10 N 0
Ieri h: 18:55 nuvoloso Nuvoloso 20 18 88 1016 10 N 0
Ieri h: 17:55 nuvoloso Nuvoloso 21 16 73 1016 10 N 0
Ieri h: 16:55 nuvoloso Nuvoloso 22 16 68 1016 10 N 0
Ieri h: 15:55 nuvoloso Nuvoloso 21 16 73 1017 10 N 0
Ieri h: 14:55 nuvoloso Nuvoloso 20 16 77 1017 10 N 0
Ieri h: 13:55 nuvoloso Nuvoloso 19 16 82 1018 6 N 0
Ieri h: 12:55 nuvoloso Nuvoloso 18 15 82 1018 6 N 0
Ieri h: 11:55 foschia Foschia 18 18 100 1018 5 N 0
Ieri h: 10:55 foschia Foschia 18 18 100 1018 5 N 0
Ieri h: 09:55 foschia Foschia 17 17 100 1017 5 N 5.5